Time;durP1;ratioP1;P1;durP2;ratioP2;P2;SDS_P1;SDS_P2;PMS_P1;PMS_P2;Temp;Humidity;BMP_temperature;BMP_pressure;BME280_temperature;BME280_humidity;BME280_pressure;Samples;Min_cycle;Max_cycle;Signal;HPM_P1;HPM_P2
2021/12/30 00:01:31;;;;;;;;;;;11.10;99.90;;;;;;5037270;28;20399;-89
2021/12/30 00:03:58;;;;;;;;;;;10.80;99.90;;;;;;5036781;28;19921;-89
2021/12/30 00:06:25;;;;;;;;;;;11.30;99.90;;;;;;5037278;28;19968;-89
2021/12/30 00:08:53;;;;;;;;;;;11.10;99.90;;;;;;5037098;28;19920;-89
2021/12/30 00:11:23;;;;;;;;;;;10.50;99.90;;;;;;5036812;28;19928;-89
2021/12/30 00:13:50;;;;;;;;;;;11.20;99.90;;;;;;5036454;28;20023;-90
2021/12/30 00:16:18;;;;;;;;;;;11.20;99.90;;;;;;5036519;28;20412;-88
2021/12/30 00:18:44;;;;;;;;;;;11.30;99.90;;;;;;5036931;28;19975;-88
2021/12/30 00:21:11;;;;;;;;;;;11.40;99.90;;;;;;5036588;28;20372;-89
2021/12/30 00:23:38;;;;;;;;;;;11.20;99.90;;;;;;5036997;28;20326;-88
2021/12/30 00:26:05;;;;;;;;;;;11.20;99.90;;;;;;5036810;28;19921;-88
2021/12/30 00:28:33;;;;;;;;;;;11.20;99.90;;;;;;5036343;28;20368;-89
2021/12/30 00:31:00;;;;;;;;;;;11.20;99.90;;;;;;5036707;28;19928;-89
2021/12/30 00:33:27;;;;;;;;;;;11.20;99.90;;;;;;5037098;28;19947;-89
2021/12/30 00:35:55;;;;;;;;;;;11.20;99.90;;;;;;5036560;28;19967;-90
2021/12/30 00:38:22;;;;;;;;;;;11.20;99.90;;;;;;5036736;28;19971;-90
2021/12/30 00:40:48;;;;;;;;;;;13.40;99.90;;;;;;5035607;28;19921;-90
2021/12/30 00:43:15;;;;;;;;;;;11.40;99.90;;;;;;5036327;28;19921;-88
2021/12/30 00:45:44;;;;;;;;;;;11.10;99.90;;;;;;5036383;28;19983;-88
2021/12/30 00:48:11;;;;;;;;;;;11.30;99.90;;;;;;5035826;28;19925;-89
2021/12/30 00:50:38;;;;;;;;;;;11.50;99.90;;;;;;5035435;28;19925;-90
2021/12/30 00:53:06;;;;;;;;;;;11.10;99.90;;;;;;5035199;28;19921;-89
2021/12/30 00:55:32;;;;;;;;;;;10.50;99.90;;;;;;5035107;28;20039;-89
2021/12/30 00:57:59;;;;;;;;;;;11.20;99.90;;;;;;5035412;28;19921;-89
2021/12/30 01:00:26;;;;;;;;;;;11.20;99.90;;;;;;5035097;28;19921;-89
2021/12/30 01:02:54;;;;;;;;;;;11.20;99.90;;;;;;5035448;28;19921;-88
2021/12/30 01:05:21;;;;;;;;;;;11.20;99.90;;;;;;5035445;28;20291;-89
2021/12/30 01:07:48;;;;;;;;;;;11.30;99.90;;;;;;5035196;28;20379;-89
2021/12/30 01:10:17;;;;;;;;;;;11.30;99.90;;;;;;5035325;28;19980;-89
2021/12/30 01:12:45;;;;;;;;;;;11.70;99.90;;;;;;5035098;28;19921;-90
2021/12/30 01:15:17;;;;;;;;;;;11.30;99.90;;;;;;5036028;28;19925;-90
2021/12/30 01:17:49;;;;;;;;;;;13.00;99.90;;;;;;5034451;28;19921;-90
2021/12/30 01:20:19;;;;;;;;;;;11.40;99.90;;;;;;5042240;28;19921;-89
2021/12/30 01:22:47;;;;;;;;;;;11.20;99.90;;;;;;5047515;28;20005;-89
2021/12/30 01:25:15;;;;;;;;;;;11.30;99.90;;;;;;5047239;28;19951;-89
2021/12/30 01:27:43;;;;;;;;;;;11.30;99.90;;;;;;5042999;28;20008;-90
2021/12/30 01:30:11;;;;;;;;;;;11.60;99.90;;;;;;5035566;28;20364;-89
2021/12/30 01:32:38;;;;;;;;;;;11.40;99.90;;;;;;5035446;28;19928;-90
2021/12/30 01:35:05;;;;;;;;;;;11.50;99.90;;;;;;5035500;28;19921;-89
2021/12/30 01:37:33;;;;;;;;;;;11.40;99.90;;;;;;5035200;28;19928;-89
2021/12/30 01:40:01;;;;;;;;;;;11.40;99.90;;;;;;5035284;28;19927;-90
2021/12/30 01:42:30;;;;;;;;;;;11.30;99.90;;;;;;5035261;28;19925;-90
2021/12/30 01:44:57;;;;;;;;;;;11.50;99.90;;;;;;5035348;28;19921;-90
2021/12/30 01:47:25;;;;;;;;;;;11.40;99.90;;;;;;5035665;28;19921;-89
2021/12/30 01:49:53;;;;;;;;;;;11.40;99.90;;;;;;5035644;28;19921;-90
2021/12/30 01:52:20;;;;;;;;;;;11.60;99.90;;;;;;5034682;28;20300;-89
2021/12/30 01:54:48;;;;;;;;;;;11.40;99.90;;;;;;5035656;28;20351;-89
2021/12/30 01:57:15;;;;;;;;;;;11.70;99.90;;;;;;5035574;28;19925;-89
2021/12/30 01:59:42;;;;;;;;;;;11.20;99.90;;;;;;5035113;28;20380;-90
2021/12/30 02:02:09;;;;;;;;;;;11.30;99.90;;;;;;5035049;28;19928;-89
2021/12/30 02:04:35;;;;;;;;;;;11.40;99.90;;;;;;5035466;28;19928;-89
2021/12/30 02:07:03;;;;;;;;;;;11.20;99.90;;;;;;5035227;28;20350;-89
2021/12/30 02:09:31;;;;;;;;;;;11.50;99.90;;;;;;5035385;28;19921;-89
2021/12/30 02:12:00;;;;;;;;;;;11.60;99.90;;;;;;5035212;28;19921;-89
2021/12/30 02:14:32;;;;;;;;;;;11.40;99.90;;;;;;5034751;28;19943;-88
2021/12/30 02:16:59;;;;;;;;;;;11.50;99.90;;;;;;5035160;28;19925;-89
2021/12/30 02:19:25;;;;;;;;;;;11.70;99.90;;;;;;5035465;28;20038;-90
2021/12/30 02:21:54;;;;;;;;;;;10.70;99.90;;;;;;5035515;28;19967;-90
2021/12/30 02:24:20;;;;;;;;;;;11.70;99.90;;;;;;5034981;28;19928;-90
2021/12/30 02:26:47;;;;;;;;;;;11.80;99.90;;;;;;5035294;28;20017;-90
2021/12/30 02:29:14;;;;;;;;;;;12.00;99.90;;;;;;5035223;28;20379;-89
2021/12/30 02:31:41;;;;;;;;;;;11.90;99.90;;;;;;5035580;28;19921;-90
2021/12/30 02:34:08;;;;;;;;;;;11.60;99.90;;;;;;5035145;28;19928;-89
2021/12/30 02:36:36;;;;;;;;;;;12.00;99.90;;;;;;5035382;28;19921;-89
2021/12/30 02:39:06;;;;;;;;;;;11.90;99.90;;;;;;5035036;28;20364;-89
2021/12/30 02:41:34;;;;;;;;;;;12.10;99.90;;;;;;5035250;28;20359;-90
2021/12/30 02:44:02;;;;;;;;;;;12.10;99.90;;;;;;5035846;28;19975;-90
2021/12/30 02:46:30;;;;;;;;;;;12.00;99.90;;;;;;5035248;28;19958;-89
2021/12/30 02:48:57;;;;;;;;;;;10.00;99.90;;;;;;5034606;28;20107;-89
2021/12/30 02:51:24;;;;;;;;;;;12.10;99.90;;;;;;5034384;28;19936;-90
2021/12/30 02:53:51;;;;;;;;;;;12.10;99.90;;;;;;5034811;28;19928;-89
2021/12/30 02:56:19;;;;;;;;;;;12.10;99.90;;;;;;5034235;28;19921;-90
2021/12/30 02:58:46;;;;;;;;;;;12.10;99.90;;;;;;5034837;28;19921;-90
2021/12/30 03:01:14;;;;;;;;;;;12.10;99.90;;;;;;5034681;28;19921;-90
2021/12/30 03:03:41;;;;;;;;;;;12.00;99.90;;;;;;5037045;28;19921;-90
2021/12/30 03:06:09;;;;;;;;;;;12.20;99.90;;;;;;5038298;28;19944;-90
2021/12/30 03:08:36;;;;;;;;;;;12.10;99.90;;;;;;5038783;28;19921;-89
2021/12/30 03:11:04;;;;;;;;;;;12.10;99.90;;;;;;5038067;28;20437;-90
2021/12/30 03:13:33;;;;;;;;;;;12.10;99.90;;;;;;5038724;28;19921;-91
2021/12/30 03:16:02;;;;;;;;;;;12.10;99.90;;;;;;5040328;28;20003;-90
2021/12/30 03:18:29;;;;;;;;;;;12.10;99.90;;;;;;5044579;28;19988;-89
2021/12/30 03:20:57;;;;;;;;;;;12.20;99.90;;;;;;5046604;28;19976;-91
2021/12/30 03:23:24;;;;;;;;;;;12.20;99.90;;;;;;5045615;28;19921;-90
2021/12/30 03:25:50;;;;;;;;;;;12.20;99.90;;;;;;5039213;28;19921;-89
2021/12/30 03:28:17;;;;;;;;;;;12.20;99.90;;;;;;5038584;28;20035;-89
2021/12/30 03:30:49;;;;;;;;;;;12.70;99.90;;;;;;5038381;28;19921;-90
2021/12/30 03:33:16;;;;;;;;;;;12.30;99.90;;;;;;5038459;28;19920;-90
2021/12/30 03:35:43;;;;;;;;;;;12.40;99.90;;;;;;5038235;28;19975;-90
2021/12/30 03:38:10;;;;;;;;;;;12.40;99.90;;;;;;5038149;28;19925;-89
2021/12/30 03:40:36;;;;;;;;;;;12.20;99.90;;;;;;5038567;28;19925;-90
2021/12/30 03:43:05;;;;;;;;;;;12.40;99.90;;;;;;5038224;28;19921;-90
2021/12/30 03:45:34;;;;;;;;;;;12.20;99.90;;;;;;5037874;28;19928;-90
2021/12/30 03:48:05;;;;;;;;;;;12.20;99.90;;;;;;5038379;28;19920;-90
2021/12/30 03:50:31;;;;;;;;;;;12.30;99.90;;;;;;5038481;28;20397;-90
2021/12/30 03:52:59;;;;;;;;;;;12.30;99.90;;;;;;5038441;28;19932;-90
2021/12/30 03:55:28;;;;;;;;;;;12.30;99.90;;;;;;5037668;28;19928;-90
2021/12/30 03:57:55;;;;;;;;;;;12.70;99.90;;;;;;5038148;28;20298;-90
2021/12/30 04:00:22;;;;;;;;;;;12.70;99.90;;;;;;5038043;28;20387;-90
2021/12/30 04:02:49;;;;;;;;;;;12.30;99.90;;;;;;5037945;28;19924;-91
2021/12/30 04:05:18;;;;;;;;;;;12.30;99.90;;;;;;5037660;28;19921;-90
2021/12/30 04:07:45;;;;;;;;;;;12.30;99.90;;;;;;5038048;28;19921;-90
2021/12/30 04:10:13;;;;;;;;;;;12.30;99.90;;;;;;5037687;28;19928;-89
2021/12/30 04:12:40;;;;;;;;;;;12.30;99.90;;;;;;5037539;28;19925;-90
2021/12/30 04:15:08;;;;;;;;;;;12.20;99.90;;;;;;5036779;28;20383;-90
2021/12/30 04:17:35;;;;;;;;;;;12.80;99.90;;;;;;5037612;28;19921;-90
2021/12/30 04:20:02;;;;;;;;;;;12.30;99.90;;;;;;5037306;28;19921;-90
2021/12/30 04:22:30;;;;;;;;;;;12.20;99.90;;;;;;5037670;28;19924;-90
2021/12/30 04:24:58;;;;;;;;;;;12.40;99.90;;;;;;5037244;28;19921;-90
2021/12/30 04:27:25;;;;;;;;;;;12.20;99.90;;;;;;5037228;28;19921;-90
2021/12/30 04:29:52;;;;;;;;;;;12.20;99.90;;;;;;5037765;28;19921;-90
2021/12/30 04:32:19;;;;;;;;;;;12.40;99.90;;;;;;5036964;28;19967;-88
2021/12/30 04:34:46;;;;;;;;;;;12.50;99.90;;;;;;5037321;28;19967;-89
2021/12/30 04:37:13;;;;;;;;;;;12.50;99.90;;;;;;5037336;28;19920;-89
2021/12/30 04:39:41;;;;;;;;;;;12.50;99.90;;;;;;5036849;28;19925;-89
2021/12/30 04:42:10;;;;;;;;;;;12.30;99.90;;;;;;5036391;28;19933;-89
2021/12/30 04:44:37;;;;;;;;;;;12.30;99.90;;;;;;5035995;28;19921;-89
2021/12/30 04:47:05;;;;;;;;;;;11.50;99.90;;;;;;5035694;28;19921;-90
2021/12/30 04:49:31;;;;;;;;;;;12.30;99.90;;;;;;5036908;28;19976;-89
2021/12/30 04:51:59;;;;;;;;;;;12.40;99.90;;;;;;5036980;28;20367;-91
2021/12/30 04:54:26;;;;;;;;;;;12.30;99.90;;;;;;5036655;28;19949;-90
2021/12/30 04:56:55;;;;;;;;;;;12.40;99.90;;;;;;5036657;28;19928;-90
2021/12/30 04:59:21;;;;;;;;;;;12.40;99.90;;;;;;5037048;28;19956;-90
2021/12/30 05:01:48;;;;;;;;;;;10.90;99.90;;;;;;5036985;28;19921;-90
2021/12/30 05:04:15;;;;;;;;;;;12.50;99.90;;;;;;5037035;28;19928;-90
2021/12/30 05:06:42;;;;;;;;;;;13.00;99.90;;;;;;5036846;28;20007;-90
2021/12/30 05:09:09;;;;;;;;;;;13.50;99.90;;;;;;5036618;28;19928;-90
2021/12/30 05:11:39;;;;;;;;;;;12.40;99.90;;;;;;5039256;28;19928;-90
2021/12/30 05:14:07;;;;;;;;;;;12.30;99.90;;;;;;5046540;28;19928;-90
2021/12/30 05:16:34;;;;;;;;;;;12.40;99.90;;;;;;5046515;28;19968;-91
2021/12/30 05:19:01;;;;;;;;;;;12.40;99.90;;;;;;5045811;28;19920;-90
2021/12/30 05:21:28;;;;;;;;;;;12.60;99.90;;;;;;5036858;28;19925;-89
2021/12/30 05:23:54;;;;;;;;;;;12.50;99.90;;;;;;5036997;28;20334;-90
2021/12/30 05:26:27;;;;;;;;;;;12.60;99.90;;;;;;5036254;28;19920;-90
2021/12/30 05:28:54;;;;;;;;;;;12.20;99.90;;;;;;5036623;28;19982;-90
2021/12/30 05:31:22;;;;;;;;;;;12.50;99.90;;;;;;5036463;28;19925;-90
2021/12/30 05:33:50;;;;;;;;;;;10.90;99.90;;;;;;5036776;28;19983;-89
2021/12/30 05:36:17;;;;;;;;;;;12.40;99.90;;;;;;5036438;28;19921;-90
2021/12/30 05:38:44;;;;;;;;;;;12.40;99.90;;;;;;5036546;28;19967;-90
2021/12/30 05:41:11;;;;;;;;;;;12.40;99.90;;;;;;5036847;28;19928;-90
2021/12/30 05:43:41;;;;;;;;;;;12.50;99.90;;;;;;5036591;28;19921;-90
2021/12/30 05:46:08;;;;;;;;;;;12.50;99.90;;;;;;5036358;28;19921;-90
2021/12/30 05:48:36;;;;;;;;;;;12.90;99.90;;;;;;5035808;28;19928;-88
2021/12/30 05:51:03;;;;;;;;;;;13.80;99.90;;;;;;5036079;28;19921;-90
2021/12/30 05:53:31;;;;;;;;;;;12.60;99.90;;;;;;5036118;28;19929;-90
2021/12/30 05:55:58;;;;;;;;;;;12.70;99.90;;;;;;5035716;28;19921;-90
2021/12/30 05:58:25;;;;;;;;;;;12.60;99.90;;;;;;5036392;28;19975;-90
2021/12/30 06:00:52;;;;;;;;;;;12.50;99.90;;;;;;5034314;28;19927;-90
2021/12/30 06:03:21;;;;;;;;;;;12.40;99.90;;;;;;5034994;28;19921;-90
2021/12/30 06:05:50;;;;;;;;;;;12.50;99.90;;;;;;5033805;28;19925;-90
2021/12/30 06:08:17;;;;;;;;;;;10.80;99.90;;;;;;5035156;28;20501;-90
2021/12/30 06:10:44;;;;;;;;;;;12.50;99.90;;;;;;5034794;28;19948;-90
2021/12/30 06:13:11;;;;;;;;;;;12.30;99.90;;;;;;5034533;28;19960;-90
2021/12/30 06:15:38;;;;;;;;;;;12.60;99.90;;;;;;5035191;28;19927;-90
2021/12/30 06:18:06;;;;;;;;;;;12.40;99.90;;;;;;5035307;28;19921;-90
2021/12/30 06:20:33;;;;;;;;;;;12.40;99.90;;;;;;5035453;28;19928;-90
2021/12/30 06:23:01;;;;;;;;;;;12.30;99.90;;;;;;5034583;28;19936;-89
2021/12/30 06:25:28;;;;;;;;;;;13.40;99.90;;;;;;5034886;28;19921;-90
2021/12/30 06:27:55;;;;;;;;;;;12.50;99.90;;;;;;5034585;28;20371;-89
2021/12/30 06:30:22;;;;;;;;;;;12.70;99.90;;;;;;5034281;28;19921;-90
2021/12/30 06:32:49;;;;;;;;;;;12.60;99.90;;;;;;5034530;28;19921;-89
2021/12/30 06:35:15;;;;;;;;;;;12.80;99.90;;;;;;5034033;28;19921;-90
2021/12/30 06:37:42;;;;;;;;;;;12.80;99.90;;;;;;5034914;28;19967;-89
2021/12/30 06:40:12;;;;;;;;;;;12.60;99.90;;;;;;5036911;28;19936;-89
2021/12/30 06:42:41;;;;;;;;;;;12.70;99.90;;;;;;5037164;28;19921;-89
2021/12/30 06:45:08;;;;;;;;;;;12.80;99.90;;;;;;5037966;28;19921;-89
2021/12/30 06:47:35;;;;;;;;;;;12.80;99.90;;;;;;5038085;28;19928;-89
2021/12/30 06:50:02;;;;;;;;;;;13.10;99.90;;;;;;5038175;28;19921;-89
2021/12/30 06:52:29;;;;;;;;;;;12.90;99.90;;;;;;5038254;28;20394;-88
2021/12/30 06:54:58;;;;;;;;;;;13.00;99.90;;;;;;5037930;28;20286;-88
2021/12/30 06:57:28;;;;;;;;;;;12.90;99.90;;;;;;5040068;28;20356;-89
2021/12/30 06:59:55;;;;;;;;;;;10.80;99.90;;;;;;5037553;28;19921;-89
2021/12/30 07:02:22;;;;;;;;;;;12.80;99.90;;;;;;5037675;28;20358;-90
2021/12/30 07:04:49;;;;;;;;;;;13.20;99.90;;;;;;5037309;28;20015;-89
2021/12/30 07:07:16;;;;;;;;;;;12.80;99.90;;;;;;5038864;28;19967;-90
2021/12/30 07:09:43;;;;;;;;;;;12.90;99.90;;;;;;5056162;28;19921;-90
2021/12/30 07:12:09;;;;;;;;;;;12.90;99.90;;;;;;5058607;28;19921;-89
2021/12/30 07:14:38;;;;;;;;;;;12.90;99.90;;;;;;5059795;28;19927;-89
2021/12/30 07:17:04;;;;;;;;;;;12.90;99.90;;;;;;5046718;28;20373;-88
2021/12/30 07:19:31;;;;;;;;;;;12.80;99.90;;;;;;5037646;28;20434;-90
2021/12/30 07:21:58;;;;;;;;;;;12.80;99.90;;;;;;5036576;28;19944;-90
2021/12/30 07:24:25;;;;;;;;;;;12.80;99.90;;;;;;5037535;28;19967;-90
2021/12/30 07:26:52;;;;;;;;;;;12.60;99.90;;;;;;5037307;28;20306;-89
2021/12/30 07:29:19;;;;;;;;;;;12.90;99.90;;;;;;5037345;28;19921;-90
2021/12/30 07:31:48;;;;;;;;;;;12.90;99.90;;;;;;5037552;28;19921;-90
2021/12/30 07:34:14;;;;;;;;;;;13.30;99.90;;;;;;5036980;28;19921;-89
2021/12/30 07:36:41;;;;;;;;;;;12.90;99.90;;;;;;5037272;28;19932;-90
2021/12/30 07:39:09;;;;;;;;;;;12.90;99.90;;;;;;5036795;28;19924;-90
2021/12/30 07:41:36;;;;;;;;;;;12.90;99.90;;;;;;5037513;28;20016;-89
2021/12/30 07:44:03;;;;;;;;;;;12.90;99.90;;;;;;5036955;28;19921;-90
2021/12/30 07:46:31;;;;;;;;;;;12.90;99.90;;;;;;5037203;28;20354;-89
2021/12/30 07:48:59;;;;;;;;;;;13.10;99.90;;;;;;5037111;28;19921;-90
2021/12/30 07:51:26;;;;;;;;;;;12.90;99.90;;;;;;5037349;28;19924;-89
2021/12/30 07:53:53;;;;;;;;;;;13.10;99.90;;;;;;5037537;28;19928;-90
2021/12/30 07:56:19;;;;;;;;;;;12.80;99.90;;;;;;5036813;28;20379;-89
2021/12/30 07:58:46;;;;;;;;;;;12.90;99.90;;;;;;5037058;28;20330;-90
2021/12/30 08:01:13;;;;;;;;;;;12.90;99.90;;;;;;5037470;28;19921;-90
2021/12/30 08:03:40;;;;;;;;;;;13.20;99.90;;;;;;5037129;28;19943;-90
2021/12/30 08:06:09;;;;;;;;;;;13.00;99.90;;;;;;5036587;28;20016;-90
2021/12/30 08:08:36;;;;;;;;;;;13.00;99.90;;;;;;5036903;28;19951;-89
2021/12/30 08:11:03;;;;;;;;;;;13.00;99.90;;;;;;5036659;28;19928;-89
2021/12/30 08:13:29;;;;;;;;;;;13.00;99.90;;;;;;5037371;28;19921;-89
2021/12/30 08:15:56;;;;;;;;;;;12.80;99.90;;;;;;5036410;28;19921;-89
2021/12/30 08:18:26;;;;;;;;;;;13.80;99.90;;;;;;5036382;28;20395;-90
2021/12/30 08:20:53;;;;;;;;;;;13.10;99.90;;;;;;5036322;28;19925;-90
2021/12/30 08:23:21;;;;;;;;;;;13.10;99.90;;;;;;5037584;28;19921;-90
2021/12/30 08:25:50;;;;;;;;;;;12.70;99.90;;;;;;5036442;28;20256;-90
2021/12/30 08:28:17;;;;;;;;;;;13.10;99.90;;;;;;5036330;28;20000;-89
2021/12/30 08:30:44;;;;;;;;;;;13.20;99.90;;;;;;5036323;28;19987;-89
2021/12/30 08:33:11;;;;;;;;;;;13.40;99.90;;;;;;5035970;28;19921;-89
2021/12/30 08:35:38;;;;;;;;;;;13.20;99.90;;;;;;5035760;28;20347;-90
2021/12/30 08:38:04;;;;;;;;;;;13.20;99.90;;;;;;5036015;28;19921;-89
2021/12/30 08:40:33;;;;;;;;;;;13.30;99.90;;;;;;5036298;28;19937;-89
2021/12/30 08:43:00;;;;;;;;;;;13.30;99.90;;;;;;5036050;28;19928;-89
2021/12/30 08:45:27;;;;;;;;;;;13.40;99.90;;;;;;5035925;28;19967;-89
2021/12/30 08:47:56;;;;;;;;;;;13.80;99.90;;;;;;5036363;28;19925;-90
2021/12/30 08:50:24;;;;;;;;;;;13.40;99.90;;;;;;5035444;28;20019;-89
2021/12/30 08:52:51;;;;;;;;;;;13.40;99.90;;;;;;5036474;28;19920;-90
2021/12/30 08:55:21;;;;;;;;;;;13.50;99.90;;;;;;5036885;28;19928;-89
2021/12/30 08:57:50;;;;;;;;;;;13.50;99.90;;;;;;5035801;28;20299;-89
2021/12/30 09:00:19;;;;;;;;;;;14.00;99.90;;;;;;5036028;28;19921;-90
2021/12/30 09:02:46;;;;;;;;;;;13.50;99.90;;;;;;5035726;28;20375;-90
2021/12/30 09:05:13;;;;;;;;;;;13.50;99.90;;;;;;5043603;28;19925;-90
2021/12/30 09:07:40;;;;;;;;;;;13.50;99.90;;;;;;5047312;28;19925;-89
2021/12/30 09:10:08;;;;;;;;;;;13.40;99.90;;;;;;5048415;28;19951;-90
2021/12/30 09:12:35;;;;;;;;;;;13.50;99.90;;;;;;5041826;28;19921;-90
2021/12/30 09:15:04;;;;;;;;;;;13.40;99.90;;;;;;5035286;28;20383;-90
2021/12/30 09:17:30;;;;;;;;;;;13.10;99.90;;;;;;5036098;28;19953;-89
2021/12/30 09:19:57;;;;;;;;;;;13.80;99.90;;;;;;5035626;28;19921;-89
2021/12/30 09:22:24;;;;;;;;;;;13.60;99.90;;;;;;5036173;28;19921;-88
2021/12/30 09:24:51;;;;;;;;;;;13.70;99.90;;;;;;5036198;28;19925;-89
2021/12/30 09:27:18;;;;;;;;;;;13.60;99.90;;;;;;5036581;28;19921;-89
2021/12/30 09:29:45;;;;;;;;;;;13.60;99.90;;;;;;5035711;28;19921;-88
2021/12/30 09:32:16;;;;;;;;;;;13.70;99.90;;;;;;5035788;28;20155;-89
2021/12/30 09:34:44;;;;;;;;;;;13.60;99.90;;;;;;5035518;28;19924;-88
2021/12/30 09:37:11;;;;;;;;;;;13.60;99.90;;;;;;5035398;28;19925;-89
2021/12/30 09:39:41;;;;;;;;;;;13.70;99.90;;;;;;5035193;28;19921;-89
2021/12/30 09:42:08;;;;;;;;;;;13.50;99.90;;;;;;5035796;28;20433;-89
2021/12/30 09:44:35;;;;;;;;;;;13.70;99.90;;;;;;5036667;28;19928;-88
2021/12/30 09:47:02;;;;;;;;;;;13.60;99.90;;;;;;5036260;28;19921;-89
2021/12/30 09:49:30;;;;;;;;;;;13.80;99.90;;;;;;5035637;28;20280;-89
2021/12/30 09:51:57;;;;;;;;;;;13.60;99.90;;;;;;5035833;28;20263;-88
2021/12/30 09:54:24;;;;;;;;;;;13.70;99.90;;;;;;5036600;28;20336;-88
2021/12/30 09:56:52;;;;;;;;;;;13.60;99.90;;;;;;5036191;28;19975;-90
2021/12/30 09:59:19;;;;;;;;;;;13.60;99.90;;;;;;5035521;28;19928;-89
2021/12/30 10:01:46;;;;;;;;;;;13.70;99.90;;;;;;5036058;28;19925;-88
2021/12/30 10:04:13;;;;;;;;;;;13.80;99.90;;;;;;5034677;28;19921;-88
2021/12/30 10:06:46;;;;;;;;;;;15.10;99.90;;;;;;5034802;28;20364;-89
2021/12/30 10:09:15;;;;;;;;;;;13.80;99.90;;;;;;5035162;28;19921;-90
2021/12/30 10:11:46;;;;;;;;;;;13.80;99.90;;;;;;5035790;28;20334;-89
2021/12/30 10:14:13;;;;;;;;;;;13.60;99.90;;;;;;5038552;28;19967;-89
2021/12/30 10:16:40;;;;;;;;;;;14.70;99.90;;;;;;5040041;28;20323;-89
2021/12/30 10:19:06;;;;;;;;;;;11.70;99.90;;;;;;5038638;28;19971;-89
2021/12/30 10:21:34;;;;;;;;;;;11.20;99.90;;;;;;5039023;28;19925;-89
2021/12/30 10:24:04;;;;;;;;;;;13.70;99.90;;;;;;5038249;28;19921;-89
2021/12/30 10:26:31;;;;;;;;;;;14.20;99.90;;;;;;5038098;28;20390;-89
2021/12/30 10:28:59;;;;;;;;;;;13.60;99.90;;;;;;5038216;28;19921;-88
2021/12/30 10:31:27;;;;;;;;;;;13.80;99.90;;;;;;5038808;28;19921;-90
2021/12/30 10:33:57;;;;;;;;;;;14.00;99.90;;;;;;5038566;28;19947;-90
2021/12/30 10:36:25;;;;;;;;;;;14.00;99.90;;;;;;5038809;28;19921;-89
2021/12/30 10:38:52;;;;;;;;;;;14.10;99.90;;;;;;5038723;28;19928;-89
2021/12/30 10:41:24;;;;;;;;;;;13.90;99.90;;;;;;5039624;28;19974;-90
2021/12/30 10:43:55;;;;;;;;;;;13.90;99.90;;;;;;5020914;28;19928;-89
2021/12/30 10:46:22;;;;;;;;;;;14.10;99.90;;;;;;5019643;28;19921;-90
2021/12/30 10:48:56;;;;;;;;;;;13.90;99.90;;;;;;5019301;28;19928;-89
2021/12/30 10:51:24;;;;;;;;;;;13.90;99.90;;;;;;5018973;28;20012;-89
2021/12/30 10:53:52;;;;;;;;;;;13.90;99.90;;;;;;5020670;28;19972;-89
2021/12/30 10:56:26;;;;;;;;;;;13.90;99.90;;;;;;5020116;28;19922;-90
2021/12/30 10:58:56;;;;;;;;;;;13.90;99.90;;;;;;5021845;28;19921;-90
2021/12/30 11:01:24;;;;;;;;;;;13.80;99.90;;;;;;5030163;28;19921;-89
2021/12/30 11:03:57;;;;;;;;;;;14.10;99.90;;;;;;5030780;28;19921;-89
2021/12/30 11:06:24;;;;;;;;;;;14.10;99.90;;;;;;5031197;28;19929;-90
2021/12/30 11:09:04;;;;;;;;;;;14.00;99.90;;;;;;5020125;28;19922;-89
2021/12/30 11:11:34;;;;;;;;;;;13.90;99.90;;;;;;5018237;28;19975;-89
2021/12/30 11:14:01;;;;;;;;;;;13.90;99.90;;;;;;5018531;28;19989;-89
2021/12/30 11:16:29;;;;;;;;;;;14.00;99.90;;;;;;5018728;28;20012;-90
2021/12/30 11:18:57;;;;;;;;;;;13.80;99.90;;;;;;5027237;28;19921;-90
2021/12/30 11:21:36;;;;;;;;;;;14.10;99.90;;;;;;5041004;28;19929;-90
2021/12/30 11:24:03;;;;;;;;;;;14.10;99.90;;;;;;5036967;28;19983;-90
2021/12/30 11:26:32;;;;;;;;;;;13.90;99.90;;;;;;5037950;28;19940;-90
2021/12/30 11:29:01;;;;;;;;;;;14.00;99.90;;;;;;5037412;28;19998;-90
2021/12/30 11:31:29;;;;;;;;;;;14.00;99.90;;;;;;5037006;28;19921;-90
2021/12/30 11:33:56;;;;;;;;;;;14.00;99.90;;;;;;5037327;28;19996;-88
2021/12/30 11:36:23;;;;;;;;;;;14.20;99.90;;;;;;5037779;28;19921;-89
2021/12/30 11:38:50;;;;;;;;;;;14.10;99.90;;;;;;5037510;28;19921;-89
2021/12/30 11:41:18;;;;;;;;;;;13.60;99.90;;;;;;5038581;28;20372;-89
2021/12/30 11:43:45;;;;;;;;;;;14.30;99.90;;;;;;5037376;28;19925;-90
2021/12/30 11:46:27;;;;;;;;;;;14.20;99.90;;;;;;5037296;28;19921;-89
2021/12/30 11:48:58;;;;;;;;;;;14.20;99.90;;;;;;5038043;28;19983;-89
2021/12/30 11:51:40;;;;;;;;;;;14.30;99.90;;;;;;5037299;28;19929;-89
2021/12/30 11:54:21;;;;;;;;;;;14.20;99.90;;;;;;5036852;28;19975;-90
2021/12/30 11:57:08;;;;;;;;;;;14.20;99.90;;;;;;5035537;28;19964;-89
2021/12/30 11:59:39;;;;;;;;;;;14.30;99.90;;;;;;5038279;28;19921;-90
2021/12/30 12:02:20;;;;;;;;;;;14.20;99.90;;;;;;5040088;28;19949;-89
2021/12/30 12:04:49;;;;;;;;;;;14.30;99.90;;;;;;5039906;28;20015;-89
2021/12/30 12:07:16;;;;;;;;;;;14.20;99.90;;;;;;5038429;28;19975;-90
2021/12/30 12:09:43;;;;;;;;;;;14.30;99.90;;;;;;5037692;28;19925;-89
2021/12/30 12:12:11;;;;;;;;;;;14.00;99.90;;;;;;5037707;28;19921;-90
2021/12/30 12:14:56;;;;;;;;;;;14.10;99.90;;;;;;5036909;28;19921;-90
2021/12/30 12:17:30;;;;;;;;;;;13.50;99.90;;;;;;5035442;28;19921;-89
2021/12/30 12:19:59;;;;;;;;;;;14.00;99.90;;;;;;5037927;28;20007;-89
2021/12/30 12:22:29;;;;;;;;;;;14.30;99.90;;;;;;5037439;28;19921;-90
2021/12/30 12:25:07;;;;;;;;;;;14.20;99.90;;;;;;5036277;28;19969;-91
2021/12/30 12:27:35;;;;;;;;;;;13.90;99.90;;;;;;5037722;28;19921;-90
2021/12/30 12:30:02;;;;;;;;;;;13.90;99.90;;;;;;5037749;28;19959;-90
2021/12/30 12:32:35;;;;;;;;;;;14.20;99.90;;;;;;5036066;28;19925;-90
2021/12/30 12:35:04;;;;;;;;;;;14.00;99.90;;;;;;5037553;28;19921;-89
2021/12/30 12:37:48;;;;;;;;;;;14.00;99.90;;;;;;5037124;28;19921;-90
2021/12/30 12:40:22;;;;;;;;;;;14.00;99.90;;;;;;5036369;28;19963;-92
2021/12/30 12:43:10;;;;;;;;;;;12.40;99.90;;;;;;5036539;28;19935;-90
2021/12/30 12:45:40;;;;;;;;;;;13.90;99.90;;;;;;5033644;28;19921;-89
2021/12/30 12:48:25;;;;;;;;;;;14.00;99.90;;;;;;5039866;28;20019;-88
2021/12/30 12:50:54;;;;;;;;;;;14.20;99.90;;;;;;5030287;28;19921;-90
2021/12/30 12:53:38;;;;;;;;;;;14.00;99.90;;;;;;5037027;28;20382;-89
2021/12/30 12:56:07;;;;;;;;;;;13.60;99.90;;;;;;5044671;28;19991;-88
2021/12/30 12:58:35;;;;;;;;;;;13.70;99.90;;;;;;5047554;28;19921;-88
2021/12/30 13:01:04;;;;;;;;;;;13.80;99.90;;;;;;5048919;28;19944;-89
2021/12/30 13:03:31;;;;;;;;;;;13.80;99.90;;;;;;5043061;28;20326;-89
2021/12/30 13:06:01;;;;;;;;;;;13.60;99.90;;;;;;5038408;28;19921;-90
2021/12/30 13:08:28;;;;;;;;;;;13.80;99.90;;;;;;5038025;28;19929;-89
2021/12/30 13:10:55;;;;;;;;;;;14.00;99.90;;;;;;5037290;28;19925;-89
2021/12/30 13:13:29;;;;;;;;;;;14.00;99.90;;;;;;5037768;28;19928;-89
2021/12/30 13:15:56;;;;;;;;;;;13.70;99.90;;;;;;5036349;28;19927;-90
2021/12/30 13:18:23;;;;;;;;;;;14.00;99.90;;;;;;5037031;28;19925;-89
2021/12/30 13:20:50;;;;;;;;;;;13.70;99.90;;;;;;5037190;28;20047;-90
2021/12/30 13:23:27;;;;;;;;;;;13.70;99.90;;;;;;5036972;28;19921;-90
2021/12/30 13:26:01;;;;;;;;;;;13.80;99.90;;;;;;5037995;28;19921;-90
2021/12/30 13:28:29;;;;;;;;;;;13.60;99.90;;;;;;5035510;28;19975;-90
2021/12/30 13:31:05;;;;;;;;;;;13.70;99.90;;;;;;5036030;28;20276;-90
2021/12/30 13:33:33;;;;;;;;;;;13.60;99.90;;;;;;5039066;28;19921;-90
2021/12/30 13:36:00;;;;;;;;;;;13.80;99.90;;;;;;5039392;28;19921;-89
2021/12/30 13:38:31;;;;;;;;;;;13.60;99.90;;;;;;5037491;28;19927;-89
2021/12/30 13:40:57;;;;;;;;;;;13.60;99.90;;;;;;5038444;28;19921;-90
2021/12/30 13:43:25;;;;;;;;;;;13.80;99.90;;;;;;5040817;28;19956;-90
2021/12/30 13:45:53;;;;;;;;;;;13.60;99.90;;;;;;5038078;28;20359;-90
2021/12/30 13:48:21;;;;;;;;;;;12.50;99.90;;;;;;5038790;28;19921;-89
2021/12/30 13:50:58;;;;;;;;;;;13.60;99.90;;;;;;5040077;28;19933;-89
2021/12/30 13:53:27;;;;;;;;;;;13.80;99.90;;;;;;5039974;28;19928;-88
2021/12/30 13:55:57;;;;;;;;;;;13.90;99.90;;;;;;5039892;28;19921;-88
2021/12/30 13:58:24;;;;;;;;;;;14.10;99.90;;;;;;5037728;28;19975;-90
2021/12/30 14:00:56;;;;;;;;;;;13.70;99.90;;;;;;5038362;28;20382;-89
2021/12/30 14:03:26;;;;;;;;;;;13.80;99.90;;;;;;5035810;28;19929;-90
2021/12/30 14:05:53;;;;;;;;;;;14.30;99.90;;;;;;5036939;28;19921;-89
2021/12/30 14:08:24;;;;;;;;;;;13.60;99.90;;;;;;5036117;28;19927;-89
2021/12/30 14:10:53;;;;;;;;;;;13.70;99.90;;;;;;5034960;28;19983;-88
2021/12/30 14:13:22;;;;;;;;;;;13.70;99.90;;;;;;5039601;28;19921;-90
2021/12/30 14:16:00;;;;;;;;;;;13.80;99.90;;;;;;5036432;28;19928;-90
2021/12/30 14:18:31;;;;;;;;;;;12.30;99.90;;;;;;5035755;28;19921;-90
2021/12/30 14:20:58;;;;;;;;;;;14.90;99.90;;;;;;5035545;28;19981;-89
2021/12/30 14:23:29;;;;;;;;;;;13.60;99.90;;;;;;5035918;28;19925;-89